createdAt,value
2023-04-01T00:00:56.254Z,6.75
2023-04-01T00:03:23.379Z,6.68
2023-04-01T00:05:49.737Z,6.60
2023-04-01T00:08:16.261Z,6.60
2023-04-01T00:10:42.269Z,6.62
2023-04-01T00:13:08.481Z,6.66
2023-04-01T00:15:34.617Z,6.70
2023-04-01T00:18:01.240Z,6.80
2023-04-01T00:20:27.893Z,6.72
2023-04-01T00:22:53.746Z,6.71
2023-04-01T00:25:19.790Z,6.75
2023-04-01T00:27:45.563Z,6.66
2023-04-01T00:30:11.941Z,6.63
2023-04-01T00:32:37.869Z,6.62
2023-04-01T00:35:04.433Z,6.59
2023-04-01T00:37:30.694Z,6.63
2023-04-01T00:39:57.138Z,6.61
2023-04-01T00:42:23.722Z,6.65
2023-04-01T00:44:54.593Z,6.60
2023-04-01T00:47:21.857Z,6.60
2023-04-01T00:49:51.541Z,6.65
2023-04-01T00:52:20.713Z,6.50
2023-04-01T00:54:49.925Z,6.52
2023-04-01T00:57:24.074Z,6.52
2023-04-01T00:59:52.996Z,6.51
2023-04-01T01:02:19.760Z,6.54
2023-04-01T01:04:46.053Z,6.49
2023-04-01T01:07:49.136Z,6.57
2023-04-01T01:10:30.457Z,6.48
2023-04-01T01:13:13.814Z,6.60
2023-04-01T01:15:48.370Z,6.48
2023-04-01T01:18:22.897Z,6.44
2023-04-01T01:21:21.266Z,6.52
2023-04-01T01:24:11.122Z,6.46
2023-04-01T01:26:59.127Z,6.53
2023-04-01T01:29:43.008Z,6.42
2023-04-01T01:32:16.998Z,6.43
2023-04-01T01:34:57.742Z,6.51
2023-04-01T01:37:26.826Z,6.46
2023-04-01T01:39:58.985Z,6.49
2023-04-01T01:42:28.655Z,6.53
2023-04-01T01:44:57.298Z,6.46
2023-04-01T01:47:25.632Z,6.43
2023-04-01T01:49:53.404Z,6.48
2023-04-01T01:52:19.264Z,6.57
2023-04-01T01:54:53.795Z,6.55
2023-04-01T01:57:25.219Z,6.55
2023-04-01T01:59:55.478Z,6.53
2023-04-01T02:02:23.967Z,6.56
2023-04-01T02:04:50.909Z,6.48
2023-04-01T02:07:34.150Z,6.56
2023-04-01T02:10:04.253Z,6.55
2023-04-01T02:12:30.908Z,6.58
2023-04-01T02:15:10.159Z,6.48
2023-04-01T02:17:40.446Z,6.51
2023-04-01T02:20:11.789Z,6.52
2023-04-01T02:22:42.333Z,6.68
2023-04-01T02:25:12.803Z,6.66
2023-04-01T02:27:40.312Z,6.56
2023-04-01T02:30:07.453Z,6.50
2023-04-01T02:32:35.295Z,6.52
2023-04-01T02:35:06.047Z,6.43
2023-04-01T02:37:33.961Z,6.48
2023-04-01T02:40:06.752Z,6.49
2023-04-01T02:42:32.917Z,6.44
2023-04-01T02:44:58.837Z,6.38
2023-04-01T02:47:24.638Z,6.43
2023-04-01T02:49:50.531Z,6.42
2023-04-01T02:52:16.425Z,6.57
2023-04-01T02:54:42.249Z,6.48
2023-04-01T02:57:08.221Z,6.47
2023-04-01T02:59:34.252Z,6.46
2023-04-01T03:02:00.446Z,6.48
2023-04-01T03:04:26.283Z,6.40
2023-04-01T03:06:52.222Z,6.51
2023-04-01T03:09:17.990Z,6.47
2023-04-01T03:11:43.895Z,6.40
2023-04-01T03:14:09.729Z,6.41
2023-04-01T03:16:35.650Z,6.48
2023-04-01T03:19:02.405Z,6.51
2023-04-01T03:21:28.354Z,6.42
2023-04-01T03:23:54.161Z,6.34
2023-04-01T03:26:20.155Z,6.36
2023-04-01T03:28:45.998Z,6.36
2023-04-01T03:31:11.950Z,6.41
2023-04-01T03:33:37.858Z,6.39
2023-04-01T03:36:06.524Z,6.45
2023-04-01T03:38:35.888Z,6.44
2023-04-01T03:41:02.445Z,6.45
2023-04-01T03:43:28.271Z,6.31
2023-04-01T03:45:55.177Z,6.34
2023-04-01T03:48:21.205Z,6.31
2023-04-01T03:50:47.364Z,6.29
2023-04-01T03:53:13.621Z,6.38
2023-04-01T03:55:40.244Z,6.23
2023-04-01T03:58:06.791Z,6.35
2023-04-01T04:00:33.123Z,6.20
2023-04-01T04:02:59.244Z,6.28
2023-04-01T04:05:26.451Z,6.31
2023-04-01T04:07:53.341Z,6.28
2023-04-01T04:10:19.846Z,6.24
2023-04-01T04:12:45.686Z,6.24
2023-04-01T04:15:12.570Z,6.22
2023-04-01T04:17:38.533Z,6.18
2023-04-01T04:20:05.048Z,6.20
2023-04-01T04:22:30.898Z,6.23
2023-04-01T04:24:56.694Z,6.16
2023-04-01T04:27:22.540Z,6.14
2023-04-01T04:29:48.364Z,6.15
2023-04-01T04:32:14.152Z,6.25
2023-04-01T04:34:40.423Z,6.28
2023-04-01T04:37:06.218Z,6.31
2023-04-01T04:39:32.061Z,6.24
2023-04-01T04:41:57.892Z,6.30
2023-04-01T04:44:23.739Z,6.31
2023-04-01T04:46:49.763Z,6.32
2023-04-01T04:49:15.828Z,6.21
2023-04-01T04:51:41.763Z,6.11
2023-04-01T04:54:08.584Z,6.16
2023-04-01T04:56:34.411Z,6.14
2023-04-01T04:59:00.266Z,6.21
2023-04-01T05:01:26.402Z,6.17
2023-04-01T05:03:52.393Z,6.19
2023-04-01T05:06:19.147Z,6.19
2023-04-01T05:08:46.171Z,6.21
2023-04-01T05:11:18.083Z,6.30
2023-04-01T05:13:44.755Z,6.23
2023-04-01T05:16:16.793Z,6.22
2023-04-01T05:18:43.208Z,6.35
2023-04-01T05:21:14.469Z,6.29
2023-04-01T05:23:40.300Z,6.24
2023-04-01T05:26:08.040Z,6.23
2023-04-01T05:28:34.691Z,6.29
2023-04-01T05:31:01.371Z,6.28
2023-04-01T05:33:28.222Z,6.33
2023-04-01T05:35:54.953Z,6.35
2023-04-01T05:38:21.268Z,6.33
2023-04-01T05:40:47.030Z,6.32
2023-04-01T05:43:13.298Z,6.41
2023-04-01T05:45:39.221Z,6.33
2023-04-01T05:48:05.575Z,6.39
2023-04-01T05:50:31.850Z,6.39
2023-04-01T05:52:57.660Z,6.33
2023-04-01T05:55:23.771Z,6.34
2023-04-01T05:57:50.042Z,6.33
2023-04-01T06:00:17.615Z,6.33
2023-04-01T06:02:43.586Z,6.31
2023-04-01T06:05:19.939Z,6.32
2023-04-01T06:07:45.976Z,6.31
2023-04-01T06:10:20.340Z,6.35
2023-04-01T06:12:46.090Z,6.41
2023-04-01T06:15:20.646Z,6.36
2023-04-01T06:18:02.606Z,6.41
2023-04-01T06:20:43.446Z,6.34
2023-04-01T06:23:21.125Z,6.43
2023-04-01T06:26:11.067Z,6.58
2023-04-01T06:28:51.905Z,6.56
2023-04-01T06:31:26.911Z,6.54
2023-04-01T06:34:06.748Z,6.61
2023-04-01T06:36:52.516Z,6.72
2023-04-01T06:39:33.212Z,6.74
2023-04-01T06:42:13.932Z,6.73
2023-04-01T06:44:55.684Z,6.74
2023-04-01T06:47:39.682Z,6.79
2023-04-01T06:50:08.538Z,6.67
2023-04-01T06:53:01.955Z,6.80
2023-04-01T06:55:50.927Z,6.88
2023-04-01T06:58:23.213Z,6.80
2023-04-01T07:00:53.229Z,6.74
2023-04-01T07:03:26.554Z,6.72
2023-04-01T07:05:54.143Z,6.85
2023-04-01T07:08:27.168Z,6.85
2023-04-01T07:11:02.906Z,6.83
2023-04-01T07:13:55.812Z,6.85
2023-04-01T07:16:30.204Z,6.86
2023-04-01T07:19:06.474Z,6.89
2023-04-01T07:21:40.808Z,6.90
2023-04-01T07:24:16.482Z,6.94
2023-04-01T07:26:42.361Z,6.87
2023-04-01T07:29:13.250Z,6.99
2023-04-01T07:32:10.127Z,7.04
2023-04-01T07:35:16.318Z,7.03
2023-04-01T07:37:58.027Z,7.05
2023-04-01T07:40:55.159Z,7.03
2023-04-01T07:44:02.949Z,7.01
2023-04-01T07:46:34.597Z,6.93
2023-04-01T07:49:28.292Z,7.03
2023-04-01T07:52:06.674Z,7.10
2023-04-01T07:54:43.674Z,7.10
2023-04-01T07:57:15.090Z,7.21
2023-04-01T08:00:06.719Z,7.26
2023-04-01T08:02:42.345Z,7.23
2023-04-01T08:05:20.795Z,7.06
2023-04-01T08:08:13.731Z,7.18
2023-04-01T08:11:11.477Z,7.11
2023-04-01T08:14:10.793Z,7.29
2023-04-01T08:17:01.956Z,7.19
2023-04-01T08:19:46.504Z,7.25
2023-04-01T08:22:22.027Z,7.21
2023-04-01T08:24:49.980Z,7.16
2023-04-01T08:27:33.357Z,7.15
2023-04-01T08:30:07.343Z,7.29
2023-04-01T08:32:43.126Z,7.29
2023-04-01T08:35:14.840Z,7.40
2023-04-01T08:37:43.417Z,7.40
2023-04-01T08:40:38.032Z,7.56
2023-04-01T08:43:16.441Z,7.56
2023-04-01T08:46:05.882Z,7.47
2023-04-01T08:48:40.863Z,7.45
2023-04-01T08:51:43.789Z,7.40
2023-04-01T08:54:22.158Z,7.47
2023-04-01T08:57:08.265Z,7.54
2023-04-01T09:00:11.555Z,7.37
2023-04-01T09:02:43.211Z,7.50
2023-04-01T09:05:30.844Z,7.55
2023-04-01T09:08:30.464Z,7.50
2023-04-01T09:11:18.213Z,7.36
2023-04-01T09:14:02.112Z,7.36
2023-04-01T09:16:49.809Z,7.44
2023-04-01T09:19:25.078Z,7.33
2023-04-01T09:21:53.824Z,7.34
2023-04-01T09:24:42.815Z,7.39
2023-04-01T09:27:11.819Z,7.45
2023-04-01T09:30:14.596Z,7.49
2023-04-01T09:33:08.295Z,7.70
2023-04-01T09:35:47.730Z,7.48
2023-04-01T09:38:44.327Z,7.60
2023-04-01T09:41:31.540Z,7.60
2023-04-01T09:44:25.732Z,7.57
2023-04-01T09:46:59.665Z,7.64
2023-04-01T09:49:31.284Z,7.44
2023-04-01T09:52:03.204Z,7.63
2023-04-01T09:54:35.421Z,7.52
2023-04-01T09:57:10.353Z,7.45
2023-04-01T10:00:09.987Z,7.45
2023-04-01T10:02:55.571Z,7.44
2023-04-01T10:05:40.330Z,7.49
2023-04-01T10:08:33.221Z,7.55
2023-04-01T10:11:04.948Z,7.63
2023-04-01T10:13:30.766Z,7.59
2023-04-01T10:16:21.307Z,7.70
2023-04-01T10:19:18.935Z,7.65
2023-04-01T10:21:56.876Z,7.67
2023-04-01T10:24:56.500Z,7.74
2023-04-01T10:27:50.009Z,7.72
2023-04-01T10:30:15.844Z,7.56
2023-04-01T10:32:56.226Z,7.48
2023-04-01T10:35:40.860Z,7.65
2023-04-01T10:38:26.754Z,7.68
2023-04-01T10:41:28.731Z,7.69
2023-04-01T10:44:09.822Z,7.79
2023-04-01T10:47:05.101Z,7.73
2023-04-01T10:49:49.556Z,7.84
2023-04-01T10:52:43.982Z,7.69
2023-04-01T10:55:57.161Z,7.66
2023-04-01T10:58:49.482Z,7.74
2023-04-01T11:01:43.357Z,7.62
2023-04-01T11:04:40.322Z,7.55
2023-04-01T11:07:15.117Z,7.61
2023-04-01T11:10:18.250Z,7.50
2023-04-01T11:12:59.019Z,7.59
2023-04-01T11:15:27.722Z,7.63
2023-04-01T11:18:23.746Z,7.59
2023-04-01T11:21:17.360Z,7.47
2023-04-01T11:24:05.536Z,7.55
2023-04-01T11:26:51.253Z,7.44
2023-04-01T11:29:22.996Z,7.50
2023-04-01T11:32:02.687Z,7.50
2023-04-01T11:34:44.017Z,7.42
2023-04-01T11:37:31.168Z,7.35
2023-04-01T11:40:06.354Z,7.39
2023-04-01T11:42:53.373Z,7.51
2023-04-01T11:45:49.477Z,7.47
2023-04-01T11:48:40.965Z,7.41
2023-04-01T11:51:35.951Z,7.44
2023-04-01T11:54:35.302Z,7.43
2023-04-01T11:57:28.304Z,7.56
2023-04-01T12:00:18.633Z,7.58
2023-04-01T12:03:15.456Z,7.62
2023-04-01T12:06:02.398Z,7.65
2023-04-01T12:08:39.079Z,7.49
2023-04-01T12:11:27.735Z,7.59
2023-04-01T12:13:57.506Z,7.67
2023-04-01T12:17:02.207Z,7.84
2023-04-01T12:19:27.966Z,7.89
2023-04-01T12:22:18.641Z,8.00
2023-04-01T12:24:59.096Z,7.83
2023-04-01T12:27:52.153Z,7.77
2023-04-01T12:30:40.454Z,7.89
2023-04-01T12:33:18.233Z,8.10
2023-04-01T12:35:56.324Z,7.96
2023-04-01T12:38:28.168Z,7.96
2023-04-01T12:41:09.807Z,7.97
2023-04-01T12:43:44.991Z,8.00
2023-04-01T12:46:10.795Z,8.09
2023-04-01T12:48:43.591Z,7.90
2023-04-01T12:51:44.636Z,7.74
2023-04-01T12:54:53.558Z,7.68
2023-04-01T12:57:56.881Z,7.70
2023-04-01T13:00:56.870Z,7.77
2023-04-01T13:03:35.466Z,7.79
2023-04-01T13:06:24.727Z,7.72
2023-04-01T13:09:03.149Z,7.65
2023-04-01T13:11:47.676Z,7.62
2023-04-01T13:14:32.534Z,7.54
2023-04-01T13:17:07.040Z,7.64
2023-04-01T13:20:04.231Z,7.61
2023-04-01T13:22:59.215Z,7.56
2023-04-01T13:26:06.899Z,7.66
2023-04-01T13:28:48.354Z,7.57
2023-04-01T13:31:31.607Z,7.60
2023-04-01T13:34:23.002Z,7.45
2023-04-01T13:36:54.734Z,7.59
2023-04-01T13:39:42.012Z,7.54
2023-04-01T13:42:17.215Z,7.52
2023-04-01T13:44:50.265Z,7.50
2023-04-01T13:47:55.914Z,7.67
2023-04-01T13:50:58.838Z,7.65
2023-04-01T13:53:50.058Z,7.71
2023-04-01T13:56:53.145Z,7.80
2023-04-01T13:59:51.227Z,7.91
2023-04-01T14:02:56.102Z,7.82
2023-04-01T14:05:44.459Z,7.80
2023-04-01T14:08:26.750Z,7.89
2023-04-01T14:11:18.245Z,7.75
2023-04-01T14:13:54.269Z,7.74
2023-04-01T14:16:45.271Z,7.66
2023-04-01T14:19:42.350Z,7.72
2023-04-01T14:22:23.926Z,7.78
2023-04-01T14:25:18.614Z,7.79
2023-04-01T14:27:55.429Z,7.94
2023-04-01T14:30:56.212Z,7.99
2023-04-01T14:33:40.429Z,7.95
2023-04-01T14:36:31.927Z,8.13
2023-04-01T14:39:24.558Z,8.06
2023-04-01T14:42:22.034Z,7.89
2023-04-01T14:45:26.337Z,8.01
2023-04-01T14:47:56.432Z,7.91
2023-04-01T14:50:30.742Z,7.93
2023-04-01T14:53:11.670Z,7.87
2023-04-01T14:55:43.451Z,7.83
2023-04-01T14:58:13.062Z,7.71
2023-04-01T15:01:05.291Z,7.91
2023-04-01T15:03:46.290Z,7.77
2023-04-01T15:06:46.070Z,7.92
2023-04-01T15:09:30.720Z,7.94
2023-04-01T15:12:02.668Z,7.87
2023-04-01T15:14:42.512Z,7.69
2023-04-01T15:17:38.099Z,7.81
2023-04-01T15:20:27.168Z,7.74
2023-04-01T15:23:21.125Z,7.90
2023-04-01T15:26:22.122Z,8.02
2023-04-01T15:29:25.264Z,7.98
2023-04-01T15:32:08.975Z,7.82
2023-04-01T15:34:49.649Z,7.81
2023-04-01T15:37:22.884Z,7.76
2023-04-01T15:40:26.116Z,7.74
2023-04-01T15:43:02.991Z,7.78
2023-04-01T15:45:36.601Z,7.78
2023-04-01T15:48:26.304Z,7.70
2023-04-01T15:51:28.794Z,7.75
2023-04-01T15:54:21.749Z,7.64
2023-04-01T15:57:15.887Z,7.74
2023-04-01T16:00:03.652Z,7.74
2023-04-01T16:02:32.695Z,7.65
2023-04-01T16:05:20.233Z,7.57
2023-04-01T16:07:54.893Z,7.54
2023-04-01T16:10:31.329Z,7.55
2023-04-01T16:13:22.736Z,7.60
2023-04-01T16:16:03.028Z,7.64
2023-04-01T16:18:42.145Z,7.55
2023-04-01T16:21:52.311Z,7.47
2023-04-01T16:24:23.982Z,7.51
2023-04-01T16:26:53.934Z,7.53
2023-04-01T16:29:40.531Z,7.46
2023-04-01T16:32:37.141Z,7.44
2023-04-01T16:35:27.351Z,7.52
2023-04-01T16:38:02.204Z,7.52
2023-04-01T16:40:55.818Z,7.50
2023-04-01T16:43:27.632Z,7.53
2023-04-01T16:45:57.361Z,7.50
2023-04-01T16:48:34.320Z,7.51
2023-04-01T16:51:05.215Z,7.41
2023-04-01T16:53:47.546Z,7.50
2023-04-01T16:56:25.275Z,7.40
2023-04-01T16:59:14.324Z,7.37
2023-04-01T17:02:05.018Z,7.51
2023-04-01T17:04:52.103Z,7.64
2023-04-01T17:07:42.332Z,7.68
2023-04-01T17:10:28.347Z,7.63
2023-04-01T17:13:11.595Z,7.60
2023-04-01T17:15:52.313Z,7.50
2023-04-01T17:18:42.810Z,7.61
2023-04-01T17:21:18.869Z,7.42
2023-04-01T17:23:52.136Z,7.46
2023-04-01T17:26:31.117Z,7.38
2023-04-01T17:29:31.500Z,7.50
2023-04-01T17:32:35.795Z,7.37
2023-04-01T17:35:18.006Z,7.38
2023-04-01T17:38:02.426Z,7.35
2023-04-01T17:40:45.065Z,7.39
2023-04-01T17:43:21.757Z,7.38
2023-04-01T17:45:56.156Z,7.44
2023-04-01T17:48:50.440Z,7.40
2023-04-01T17:51:40.906Z,7.53
2023-04-01T17:54:25.630Z,7.35
2023-04-01T17:57:28.287Z,7.27
2023-04-01T18:00:14.836Z,7.15
2023-04-01T18:02:47.830Z,7.17
2023-04-01T18:05:52.542Z,7.33
2023-04-01T18:08:38.157Z,7.34
2023-04-01T18:11:21.269Z,7.39
2023-04-01T18:14:01.417Z,7.36
2023-04-01T18:17:03.766Z,7.39
2023-04-01T18:19:42.506Z,7.33
2023-04-01T18:22:39.067Z,7.42
2023-04-01T18:25:07.919Z,7.47
2023-04-01T18:27:41.915Z,7.42
2023-04-01T18:30:15.688Z,7.42
2023-04-01T18:32:57.587Z,7.51
2023-04-01T18:35:50.895Z,7.37
2023-04-01T18:38:29.743Z,7.37
2023-04-01T18:41:05.247Z,7.23
2023-04-01T18:43:39.966Z,7.29
2023-04-01T18:46:17.272Z,7.27
2023-04-01T18:49:00.236Z,7.13
2023-04-01T18:51:39.820Z,7.17
2023-04-01T18:54:30.171Z,7.26
2023-04-01T18:57:16.363Z,7.23
2023-04-01T18:59:54.450Z,7.18
2023-04-01T19:02:31.550Z,7.15
2023-04-01T19:04:58.322Z,7.13
2023-04-01T19:07:41.316Z,7.03
2023-04-01T19:10:42.310Z,7.05
2023-04-01T19:13:33.058Z,7.14
2023-04-01T19:16:20.618Z,7.24
2023-04-01T19:18:49.648Z,7.19
2023-04-01T19:21:34.177Z,7.39
2023-04-01T19:24:18.549Z,7.37
2023-04-01T19:26:59.160Z,7.25
2023-04-01T19:29:43.661Z,7.31
2023-04-01T19:32:24.527Z,7.30
2023-04-01T19:35:15.631Z,7.21
2023-04-01T19:37:53.969Z,7.21
2023-04-01T19:40:50.987Z,7.25
2023-04-01T19:43:31.076Z,7.28
2023-04-01T19:46:26.838Z,7.33
2023-04-01T19:49:10.930Z,7.37
2023-04-01T19:51:52.864Z,7.31
2023-04-01T19:54:55.443Z,7.36
2023-04-01T19:57:30.274Z,7.42
2023-04-01T20:00:22.920Z,7.47
2023-04-01T20:03:05.937Z,7.39
2023-04-01T20:06:12.111Z,7.41
2023-04-01T20:09:02.815Z,7.49
2023-04-01T20:11:53.310Z,7.46
2023-04-01T20:14:43.815Z,7.50
2023-04-01T20:17:28.148Z,7.38
2023-04-01T20:19:58.193Z,7.42
2023-04-01T20:22:45.749Z,7.52
2023-04-01T20:25:31.296Z,7.51
2023-04-01T20:28:04.371Z,7.44
2023-04-01T20:31:00.282Z,7.34
2023-04-01T20:33:54.131Z,7.36
2023-04-01T20:36:32.171Z,7.45
2023-04-01T20:39:24.644Z,7.37
2023-04-01T20:42:15.119Z,7.30
2023-04-01T20:45:01.458Z,7.44
2023-04-01T20:47:56.668Z,7.42
2023-04-01T20:50:27.615Z,7.42
2023-04-01T20:53:24.261Z,7.38
2023-04-01T20:56:27.725Z,7.42
2023-04-01T20:59:28.892Z,7.38
2023-04-01T21:02:02.480Z,7.37
2023-04-01T21:04:36.978Z,7.30
2023-04-01T21:07:08.569Z,7.29
2023-04-01T21:09:49.412Z,7.31
2023-04-01T21:12:36.876Z,7.36
2023-04-01T21:15:08.554Z,7.43
2023-04-01T21:17:59.124Z,7.38
2023-04-01T21:20:27.807Z,7.36
2023-04-01T21:23:05.605Z,7.30
2023-04-01T21:25:51.300Z,7.36
2023-04-01T21:28:37.694Z,7.37
2023-04-01T21:31:34.327Z,7.32
2023-04-01T21:34:37.426Z,7.51
2023-04-01T21:37:33.351Z,7.43
2023-04-01T21:40:14.855Z,7.27
2023-04-01T21:42:51.774Z,7.27
2023-04-01T21:45:23.567Z,7.41
2023-04-01T21:47:55.063Z,7.27
2023-04-01T21:50:50.160Z,7.19
2023-04-01T21:53:43.050Z,7.25
2023-04-01T21:56:38.284Z,7.32
2023-04-01T21:59:10.011Z,7.36
2023-04-01T22:01:41.864Z,7.34
2023-04-01T22:04:29.452Z,7.14
2023-04-01T22:07:07.053Z,7.16
2023-04-01T22:09:40.054Z,7.09
2023-04-01T22:12:22.923Z,7.21
2023-04-01T22:15:17.630Z,7.23
2023-04-01T22:18:03.632Z,7.16
2023-04-01T22:20:37.352Z,7.15
2023-04-01T22:23:26.599Z,7.35
2023-04-01T22:26:05.788Z,7.30
2023-04-01T22:28:42.537Z,7.15
2023-04-01T22:31:12.624Z,7.06
2023-04-01T22:33:43.655Z,7.16
2023-04-01T22:36:30.937Z,7.21
2023-04-01T22:39:06.304Z,7.27
2023-04-01T22:41:56.763Z,7.29
2023-04-01T22:44:40.872Z,7.30
2023-04-01T22:47:19.240Z,7.29
2023-04-01T22:49:52.287Z,7.24
2023-04-01T22:52:31.322Z,7.22
2023-04-01T22:55:02.783Z,7.24
2023-04-01T22:57:55.977Z,7.33
2023-04-01T23:00:29.804Z,7.34
2023-04-01T23:03:34.699Z,7.43
2023-04-01T23:06:03.460Z,7.37
2023-04-01T23:08:41.445Z,7.35
2023-04-01T23:11:13.722Z,7.35
2023-04-01T23:13:45.539Z,7.35
2023-04-01T23:16:23.717Z,7.37
2023-04-01T23:19:11.811Z,7.45
2023-04-01T23:21:37.545Z,7.46
2023-04-01T23:24:34.294Z,7.42
2023-04-01T23:27:10.924Z,7.38
2023-04-01T23:29:42.984Z,7.39
2023-04-01T23:32:22.598Z,7.42
2023-04-01T23:34:51.470Z,7.44
2023-04-01T23:37:19.519Z,7.41
2023-04-01T23:39:49.206Z,7.45
2023-04-01T23:42:20.947Z,7.42
2023-04-01T23:44:49.286Z,7.38
2023-04-01T23:47:19.279Z,7.38
2023-04-01T23:49:55.647Z,7.36
2023-04-01T23:52:25.137Z,7.43
2023-04-01T23:55:00.050Z,7.45
2023-04-01T23:57:36.395Z,7.39
